Time;durP1;ratioP1;P1;durP2;ratioP2;P2;SDS_P1;SDS_P2;PMS_P1;PMS_P2;Temp;Humidity;BMP_temperature;BMP_pressure;BME280_temperature;BME280_humidity;BME280_pressure;Samples;Min_cycle;Max_cycle;Signal;HPM_P1;HPM_P2
2021/03/16 00:01:01;;;;;;;;;;;;;;;15.20;24.62;99182.84;4446312;32;33225;-88
2021/03/16 00:03:48;;;;;;;;;;;;;;;15.23;24.67;99174.78;4459679;32;33572;-88
2021/03/16 00:06:18;;;;;;;;;;;;;;;14.27;26.15;99181.97;4442730;32;32089;-87
2021/03/16 00:08:46;;;;;;;;;;;;;;;14.51;25.93;99190.25;4454749;32;33922;-88
2021/03/16 00:11:13;;;;;;;;;;;;;;;14.55;25.97;99185.69;4455339;32;34843;-88
2021/03/16 00:13:41;;;;;;;;;;;;;;;13.83;26.93;99184.28;4455219;32;34188;-87
2021/03/16 00:16:08;;;;;;;;;;;;;;;14.09;26.45;99187.28;4467913;32;33044;-88
2021/03/16 00:18:36;;;;;;;;;;;;;;;14.25;26.41;99189.06;4442459;32;32864;-88
2021/03/16 00:21:06;;;;;;;;;;;;;;;13.88;26.91;99189.31;4468059;32;33394;-88
2021/03/16 00:23:34;;;;;;;;;;;;;;;14.09;26.72;99183.81;4455730;32;33438;-88
2021/03/16 00:26:02;;;;;;;;;;;;;;;13.85;27.12;99189.44;4457247;32;31799;-88
2021/03/16 00:28:32;;;;;;;;;;;;;;;13.77;26.98;99179.38;4445214;32;34105;-88
2021/03/16 00:30:59;;;;;;;;;;;;;;;14.25;26.29;99192.53;4444421;32;33701;-88
2021/03/16 00:33:27;;;;;;;;;;;;;;;14.21;26.33;99198.88;4456865;32;33714;-88
2021/03/16 00:35:55;;;;;;;;;;;;;;;14.09;26.53;99195.13;4457293;32;33031;-88
2021/03/16 00:38:23;;;;;;;;;;;;;;;14.15;26.28;99200.06;4457295;32;34936;-88
2021/03/16 00:40:50;;;;;;;;;;;;;;;14.13;26.37;99199.31;4456845;32;33080;-88
2021/03/16 00:43:17;;;;;;;;;;;;;;;13.47;27.35;99205.41;4444172;32;32900;-88
2021/03/16 00:45:45;;;;;;;;;;;;;;;14.04;26.56;99199.81;4444365;32;32318;-88
2021/03/16 00:48:16;;;;;;;;;;;;;;;13.92;26.65;99201.31;4444237;32;32966;-88
2021/03/16 00:50:45;;;;;;;;;;;;;;;13.47;27.48;99208.84;4444615;32;33039;-88
2021/03/16 00:53:13;;;;;;;;;;;;;;;13.57;27.45;99205.78;4457216;32;33104;-88
2021/03/16 00:55:41;;;;;;;;;;;;;;;14.00;26.78;99204.34;4470145;32;33271;-88
2021/03/16 00:58:11;;;;;;;;;;;;;;;14.04;26.60;99207.66;4470119;32;33545;-88
2021/03/16 01:00:38;;;;;;;;;;;;;;;13.59;27.31;99209.13;4444030;32;34037;-88
2021/03/16 01:03:05;;;;;;;;;;;;;;;13.42;27.69;99210.03;4456971;32;33752;-88
2021/03/16 01:05:33;;;;;;;;;;;;;;;13.80;26.94;99209.78;4444250;32;33660;-88
2021/03/16 01:08:00;;;;;;;;;;;;;;;13.70;27.18;99207.66;4456718;32;34349;-88
2021/03/16 01:10:28;;;;;;;;;;;;;;;13.57;27.35;99208.37;4457010;32;34532;-87
2021/03/16 01:12:56;;;;;;;;;;;;;;;13.67;27.24;99202.59;4456667;32;32987;-88
2021/03/16 01:15:24;;;;;;;;;;;;;;;14.05;26.70;99209.31;4456811;32;32302;-88
2021/03/16 01:17:51;;;;;;;;;;;;;;;13.30;27.78;99207.06;4444043;32;32851;-88
2021/03/16 01:20:22;;;;;;;;;;;;;;;13.18;28.00;99203.28;4456666;32;33151;-88
2021/03/16 01:22:49;;;;;;;;;;;;;;;13.81;27.12;99191.41;4469497;32;34247;-88
2021/03/16 01:25:16;;;;;;;;;;;;;;;13.40;27.65;99191.78;4456431;32;33623;-87
2021/03/16 01:27:44;;;;;;;;;;;;;;;13.95;26.75;99193.28;4443980;32;34240;-89
2021/03/16 01:30:12;;;;;;;;;;;;;;;14.06;26.49;99191.84;4443981;32;33048;-88
2021/03/16 01:32:39;;;;;;;;;;;;;;;13.93;26.66;99199.53;4456962;32;34907;-88
2021/03/16 01:35:09;;;;;;;;;;;;;;;14.00;26.47;99201.72;4457891;32;32311;-87
2021/03/16 01:37:36;;;;;;;;;;;;;;;14.01;26.52;99202.56;4448407;32;32378;-88
2021/03/16 01:40:14;;;;;;;;;;;;;;;13.89;26.70;99201.44;4449605;32;33098;-87
2021/03/16 01:42:42;;;;;;;;;;;;;;;13.41;27.55;99200.47;4460412;32;33523;-88
2021/03/16 01:45:10;;;;;;;;;;;;;;;13.06;28.33;99201.31;4443734;32;32655;-87
2021/03/16 01:47:41;;;;;;;;;;;;;;;13.11;28.20;99206.28;4456635;32;34862;-88
2021/03/16 01:50:10;;;;;;;;;;;;;;;13.13;28.16;99209.69;4456687;32;33189;-88
2021/03/16 01:52:38;;;;;;;;;;;;;;;13.29;27.94;99205.38;4444258;32;32773;-87
2021/03/16 01:55:05;;;;;;;;;;;;;;;13.08;28.29;99207.28;4466412;32;33225;-87
2021/03/16 01:57:33;;;;;;;;;;;;;;;12.90;28.66;99209.06;4466758;32;34898;-86
2021/03/16 02:00:18;;;;;;;;;;;;;;;12.95;28.67;99211.44;4463366;32;34536;-88
2021/03/16 02:03:06;;;;;;;;;;;;;;;12.76;28.97;99206.28;4447915;32;34256;-88
2021/03/16 02:05:52;;;;;;;;;;;;;;;12.92;28.88;99204.59;4461194;32;34036;-87
2021/03/16 02:08:40;;;;;;;;;;;;;;;12.61;29.38;99200.03;4460665;32;34821;-88
2021/03/16 02:11:28;;;;;;;;;;;;;;;12.50;29.66;99200.53;4461102;32;33817;-88
2021/03/16 02:14:20;;;;;;;;;;;;;;;12.78;29.24;99204.44;4458305;32;33288;-87
2021/03/16 02:17:14;;;;;;;;;;;;;;;12.79;29.35;99196.53;4447417;32;32958;-87
2021/03/16 02:20:07;;;;;;;;;;;;;;;12.42;29.90;99192.19;4460576;32;34787;-87
2021/03/16 02:22:52;;;;;;;;;;;;;;;12.83;29.40;99194.59;4471631;32;34642;-88
2021/03/16 02:25:47;;;;;;;;;;;;;;;13.02;29.14;99195.38;4447606;32;32688;-87
2021/03/16 02:28:34;;;;;;;;;;;;;;;12.44;30.07;99187.75;4471755;32;33937;-87
2021/03/16 02:31:19;;;;;;;;;;;;;;;12.16;30.68;99202.09;4460529;32;34933;-88
2021/03/16 02:34:05;;;;;;;;;;;;;;;11.98;30.92;99196.81;4460821;32;34248;-87
2021/03/16 02:36:50;;;;;;;;;;;;;;;11.77;31.34;99213.41;4458238;32;32957;-87
2021/03/16 02:39:36;;;;;;;;;;;;;;;12.16;30.82;99209.94;4447323;32;32208;-87
2021/03/16 02:42:22;;;;;;;;;;;;;;;12.33;30.44;99206.56;4447210;32;33153;-88
2021/03/16 02:45:08;;;;;;;;;;;;;;;12.54;30.05;99207.31;4471403;32;34165;-87
2021/03/16 02:47:55;;;;;;;;;;;;;;;12.45;30.17;99215.59;4470328;32;33882;-87
2021/03/16 02:50:41;;;;;;;;;;;;;;;12.11;30.87;99210.16;4447262;32;32129;-88
2021/03/16 02:53:28;;;;;;;;;;;;;;;12.15;30.75;99218.69;4447924;32;34226;-88
2021/03/16 02:56:13;;;;;;;;;;;;;;;12.93;29.52;99208.91;4461404;32;34940;-88
2021/03/16 02:58:58;;;;;;;;;;;;;;;12.33;30.48;99204.78;4484646;32;33794;-88
2021/03/16 03:01:45;;;;;;;;;;;;;;;12.52;30.11;99204.78;4458899;32;32861;-88
2021/03/16 03:04:30;;;;;;;;;;;;;;;12.58;30.08;99221.91;4471757;32;33566;-88
2021/03/16 03:07:15;;;;;;;;;;;;;;;12.94;29.47;99204.53;4457849;32;33396;-88
2021/03/16 03:10:03;;;;;;;;;;;;;;;12.68;29.85;99209.25;4447030;32;34008;-88
2021/03/16 03:12:50;;;;;;;;;;;;;;;12.33;30.42;99211.78;4457850;32;32503;-87
2021/03/16 03:15:36;;;;;;;;;;;;;;;12.45;30.28;99212.97;4446984;32;33841;-88
2021/03/16 03:18:22;;;;;;;;;;;;;;;12.18;30.80;99214.19;4447188;32;33159;-87
2021/03/16 03:21:12;;;;;;;;;;;;;;;12.19;30.92;99222.84;4470893;32;34722;-88
2021/03/16 03:24:03;;;;;;;;;;;;;;;12.09;31.12;99216.37;4460100;32;34151;-88
2021/03/16 03:27:01;;;;;;;;;;;;;;;11.42;32.27;99221.84;4446685;32;33126;-88
2021/03/16 03:29:47;;;;;;;;;;;;;;;11.88;31.42;99225.97;4468524;32;32936;-87
2021/03/16 03:32:34;;;;;;;;;;;;;;;12.49;30.50;99222.34;4446812;32;33586;-88
2021/03/16 03:35:20;;;;;;;;;;;;;;;12.19;30.79;99222.84;4446752;32;32408;-87
2021/03/16 03:38:06;;;;;;;;;;;;;;;11.80;31.50;99227.16;4446506;32;33250;-87
2021/03/16 03:40:51;;;;;;;;;;;;;;;12.53;30.44;99226.50;4459899;32;33737;-88
2021/03/16 03:43:38;;;;;;;;;;;;;;;12.44;30.38;99227.78;4459940;32;33826;-87
2021/03/16 03:46:23;;;;;;;;;;;;;;;11.89;31.42;99235.50;4457189;32;32713;-87
2021/03/16 03:49:10;;;;;;;;;;;;;;;11.74;31.69;99231.78;4459687;32;33340;-87
2021/03/16 03:51:56;;;;;;;;;;;;;;;11.73;31.82;99233.56;4459685;32;33889;-87
2021/03/16 03:54:43;;;;;;;;;;;;;;;11.94;31.29;99237.00;4457275;32;32913;-88
2021/03/16 03:57:28;;;;;;;;;;;;;;;12.14;30.92;99240.50;4446075;32;31978;-87
2021/03/16 04:00:14;;;;;;;;;;;;;;;12.33;30.82;99240.50;4448183;32;32889;-88
2021/03/16 04:03:01;;;;;;;;;;;;;;;12.06;31.03;99235.62;4448529;32;32757;-87
2021/03/16 04:05:47;;;;;;;;;;;;;;;12.33;30.73;99249.19;4472094;32;34270;-88
2021/03/16 04:08:34;;;;;;;;;;;;;;;12.01;31.23;99250.66;4461490;32;33838;-87
2021/03/16 04:11:23;;;;;;;;;;;;;;;12.22;30.98;99258.41;4448735;32;32957;-87
2021/03/16 04:14:09;;;;;;;;;;;;;;;12.13;30.96;99262.31;4477407;32;34425;-87
2021/03/16 04:16:55;;;;;;;;;;;;;;;12.00;31.24;99270.69;4460279;32;33347;-87
2021/03/16 04:19:41;;;;;;;;;;;;;;;12.64;30.21;99263.44;4449593;32;32994;-87
2021/03/16 04:22:27;;;;;;;;;;;;;;;12.75;30.07;99267.31;4461972;32;33976;-87
2021/03/16 04:25:13;;;;;;;;;;;;;;;12.52;30.36;99269.22;4461888;32;34067;-87
2021/03/16 04:27:58;;;;;;;;;;;;;;;11.89;31.45;99266.84;4461671;32;33763;-87
2021/03/16 04:30:44;;;;;;;;;;;;;;;12.46;30.73;99265.16;4459161;32;32274;-87
2021/03/16 04:33:30;;;;;;;;;;;;;;;12.42;30.78;99271.44;4447969;32;33323;-88
2021/03/16 04:36:16;;;;;;;;;;;;;;;12.78;30.26;99272.41;4459080;32;32776;-87
2021/03/16 04:39:03;;;;;;;;;;;;;;;12.45;30.87;99286.97;4472015;32;34063;-87
2021/03/16 04:41:48;;;;;;;;;;;;;;;12.56;30.70;99278.63;4447827;32;32885;-87
2021/03/16 04:44:33;;;;;;;;;;;;;;;12.49;30.69;99282.44;4472339;32;33720;-88
2021/03/16 04:47:19;;;;;;;;;;;;;;;12.61;30.37;99284.47;4448316;32;33380;-88
2021/03/16 04:50:05;;;;;;;;;;;;;;;12.53;30.79;99281.38;4461592;32;33699;-88
2021/03/16 04:52:52;;;;;;;;;;;;;;;12.72;30.40;99278.75;4469662;32;32904;-88
2021/03/16 04:55:37;;;;;;;;;;;;;;;12.48;30.84;99284.19;4458826;32;33940;-88
2021/03/16 04:58:23;;;;;;;;;;;;;;;12.69;30.60;99282.34;4459553;32;33005;-88
2021/03/16 05:01:08;;;;;;;;;;;;;;;12.70;30.74;99284.06;4448232;32;32783;-87
2021/03/16 05:03:54;;;;;;;;;;;;;;;11.23;33.61;99283.53;4459221;32;33345;-87
2021/03/16 05:06:40;;;;;;;;;;;;;;;11.61;33.24;99286.31;4448733;32;32960;-87
2021/03/16 05:09:26;;;;;;;;;;;;;;;11.67;33.19;99281.66;4457597;32;34235;-87
2021/03/16 05:12:11;;;;;;;;;;;;;;;11.88;32.84;99286.84;4457204;32;32735;-87
2021/03/16 05:14:57;;;;;;;;;;;;;;;11.36;33.76;99295.97;4448402;32;32095;-87
2021/03/16 05:17:43;;;;;;;;;;;;;;;11.63;33.63;99297.50;4459050;32;32931;-87
2021/03/16 05:20:29;;;;;;;;;;;;;;;12.15;32.65;99302.25;4448120;32;32687;-87
2021/03/16 05:23:15;;;;;;;;;;;;;;;12.41;32.19;99295.84;4461279;32;33906;-88
2021/03/16 05:26:00;;;;;;;;;;;;;;;12.62;32.02;99291.41;4460856;32;34173;-87
2021/03/16 05:28:47;;;;;;;;;;;;;;;11.94;33.61;99307.47;4461479;32;34691;-88
2021/03/16 05:31:32;;;;;;;;;;;;;;;11.75;34.21;99307.41;4472423;32;34047;-88
2021/03/16 05:34:18;;;;;;;;;;;;;;;12.10;33.77;99319.88;4448868;32;33693;-88
2021/03/16 05:37:04;;;;;;;;;;;;;;;12.16;33.91;99312.63;4464172;32;34097;-87
2021/03/16 05:39:49;;;;;;;;;;;;;;;11.99;34.56;99317.75;4463383;32;33759;-88
2021/03/16 05:42:35;;;;;;;;;;;;;;;11.44;35.91;99319.12;4449697;32;33532;-87
2021/03/16 05:45:20;;;;;;;;;;;;;;;11.70;35.75;99320.66;4462648;32;34108;-87
2021/03/16 05:48:08;;;;;;;;;;;;;;;11.80;35.70;99325.50;4461852;32;33857;-88
2021/03/16 05:50:55;;;;;;;;;;;;;;;11.61;36.13;99333.25;4458484;32;33393;-88
2021/03/16 05:53:40;;;;;;;;;;;;;;;11.55;36.27;99328.28;4447660;32;33140;-87
2021/03/16 05:56:26;;;;;;;;;;;;;;;11.39;36.75;99331.53;4461119;32;34343;-88
2021/03/16 05:59:12;;;;;;;;;;;;;;;11.69;36.22;99320.75;4447882;32;31936;-88
2021/03/16 06:01:58;;;;;;;;;;;;;;;12.07;35.45;99331.31;4448088;32;32911;-88
2021/03/16 06:04:44;;;;;;;;;;;;;;;11.93;35.87;99329.28;4447551;32;33343;-88
2021/03/16 06:07:29;;;;;;;;;;;;;;;12.16;35.30;99335.28;4447260;32;32881;-89
2021/03/16 06:10:20;;;;;;;;;;;;;;;12.07;35.53;99335.69;4448184;32;33140;-88
2021/03/16 06:13:12;;;;;;;;;;;;;;;12.24;35.26;99338.41;4484030;32;34740;-88
2021/03/16 06:16:14;;;;;;;;;;;;;;;11.93;36.07;99337.09;4448029;32;33162;-88
2021/03/16 06:19:03;;;;;;;;;;;;;;;11.60;36.60;99344.59;4458530;32;34425;-89
2021/03/16 06:21:58;;;;;;;;;;;;;;;12.00;35.96;99348.16;4447270;32;32214;-88
2021/03/16 06:24:47;;;;;;;;;;;;;;;12.52;35.10;99358.06;4447489;32;33131;-88
2021/03/16 06:27:33;;;;;;;;;;;;;;;12.38;35.49;99363.94;4458248;32;33279;-89
2021/03/16 06:30:26;;;;;;;;;;;;;;;12.82;34.53;99362.84;4458788;32;34312;-91
2021/03/16 06:33:17;;;;;;;;;;;;;;;12.43;35.63;99377.66;4448262;32;32015;-91
2021/03/16 06:36:07;;;;;;;;;;;;;;;12.64;35.09;99373.22;4461858;32;34704;-91
2021/03/16 06:38:53;;;;;;;;;;;;;;;12.77;34.83;99381.34;4448078;32;33349;-91
2021/03/16 06:41:39;;;;;;;;;;;;;;;12.68;34.73;99381.75;4448180;32;32980;-91
2021/03/16 06:44:25;;;;;;;;;;;;;;;12.57;35.41;99376.19;4447716;32;33526;-92
2021/03/16 06:47:14;;;;;;;;;;;;;;;12.03;36.35;99387.19;4450168;32;32412;-91
2021/03/16 06:50:00;;;;;;;;;;;;;;;12.06;36.59;99386.22;4444196;32;36086;-92
2021/03/16 06:52:49;;;;;;;;;;;;;;;12.49;35.67;99386.97;4474752;32;34183;-91
2021/03/16 06:55:35;;;;;;;;;;;;;;;12.91;34.64;99392.91;4452166;32;33241;-92
2021/03/16 06:58:32;;;;;;;;;;;;;;;12.94;34.55;99400.66;4459898;32;33896;-90
2021/03/16 07:01:17;;;;;;;;;;;;;;;12.83;34.99;99401.97;4448373;32;32935;-92
2021/03/16 07:04:11;;;;;;;;;;;;;;;12.91;34.83;99406.84;4462946;32;33778;-91
2021/03/16 07:06:58;;;;;;;;;;;;;;;12.44;35.81;99399.37;4448287;31;32587;-91
2021/03/16 07:09:44;;;;;;;;;;;;;;;12.66;35.72;99409.75;4453965;32;33457;-91
2021/03/16 07:12:33;;;;;;;;;;;;;;;12.85;35.22;99412.34;4448852;32;33103;-87
2021/03/16 07:15:19;;;;;;;;;;;;;;;13.27;34.46;99411.28;4459611;32;33425;-90
2021/03/16 07:18:08;;;;;;;;;;;;;;;12.25;36.41;99415.03;4448939;32;32026;-93
2021/03/16 07:20:56;;;;;;;;;;;;;;;12.88;35.48;99414.00;4447294;32;33141;-89
2021/03/16 07:23:47;;;;;;;;;;;;;;;13.00;35.11;99411.66;4458693;32;33036;-92
2021/03/16 07:26:34;;;;;;;;;;;;;;;12.66;35.83;99415.81;4448785;32;33711;-92
2021/03/16 07:29:20;;;;;;;;;;;;;;;13.34;34.72;99422.31;4448688;32;32815;-92
2021/03/16 07:32:18;;;;;;;;;;;;;;;13.27;34.81;99420.88;4450442;32;34191;-93
2021/03/16 07:35:05;;;;;;;;;;;;;;;13.57;34.42;99416.00;4458614;32;34181;-94
2021/03/16 07:37:53;;;;;;;;;;;;;;;13.10;35.40;99419.91;4449485;32;33414;-92
2021/03/16 07:40:39;;;;;;;;;;;;;;;13.52;34.54;99421.47;4458111;32;32167;-91
2021/03/16 07:43:36;;;;;;;;;;;;;;;13.40;34.66;99426.44;4447805;32;33403;-93
2021/03/16 07:46:22;;;;;;;;;;;;;;;13.20;35.00;99428.19;4470296;32;33057;-94
2021/03/16 07:49:13;;;;;;;;;;;;;;;13.59;34.58;99429.00;4446472;32;34281;-92
2021/03/16 07:52:00;;;;;;;;;;;;;;;13.48;34.64;99429.53;4435750;32;32326;-91
2021/03/16 07:54:49;;;;;;;;;;;;;;;13.51;34.83;99426.78;4442999;32;33457;-93
2021/03/16 07:57:35;;;;;;;;;;;;;;;14.36;32.99;99426.03;4442855;32;33301;-92
2021/03/16 08:00:28;;;;;;;;;;;;;;;13.95;34.04;99425.53;4442629;32;33393;-93
2021/03/16 08:03:21;;;;;;;;;;;;;;;14.64;32.73;99421.16;4445470;32;32866;-93
2021/03/16 08:06:23;;;;;;;;;;;;;;;14.70;32.70;99436.56;4442922;32;32982;-93
2021/03/16 08:09:19;;;;;;;;;;;;;;;14.81;32.70;99434.22;4442749;32;33073;-92
2021/03/16 08:12:15;;;;;;;;;;;;;;;15.31;31.53;99434.16;4443372;32;32882;-92
2021/03/16 08:15:11;;;;;;;;;;;;;;;15.18;31.33;99439.25;4450329;32;33293;-91
2021/03/16 08:17:58;;;;;;;;;;;;;;;15.13;31.74;99439.50;4457521;32;34380;-91
2021/03/16 08:20:46;;;;;;;;;;;;;;;15.03;32.05;99446.19;4457873;32;34193;-91
2021/03/16 08:23:33;;;;;;;;;;;;;;;14.99;32.20;99463.84;4444094;32;35194;-91
2021/03/16 08:26:19;;;;;;;;;;;;;;;15.20;31.49;99448.72;4445354;32;32353;-93
2021/03/16 08:29:06;;;;;;;;;;;;;;;15.44;31.04;99447.47;4445906;32;34066;-93
2021/03/16 08:31:52;;;;;;;;;;;;;;;15.52;30.97;99442.63;4443107;32;33535;-93
2021/03/16 08:34:38;;;;;;;;;;;;;;;15.97;30.03;99440.97;4442466;32;32959;-92
2021/03/16 08:37:28;;;;;;;;;;;;;;;15.96;30.03;99448.94;4444568;32;32349;-93
2021/03/16 08:40:24;;;;;;;;;;;;;;;16.62;28.98;99447.66;4443316;32;32904;-92
2021/03/16 08:43:10;;;;;;;;;;;;;;;16.24;28.51;99450.78;4457146;32;33960;-92
2021/03/16 08:45:57;;;;;;;;;;;;;;;16.29;28.60;99448.72;4445937;32;34716;-92
2021/03/16 08:48:45;;;;;;;;;;;;;;;16.74;28.33;99455.72;4447268;32;32342;-92
2021/03/16 08:51:33;;;;;;;;;;;;;;;16.59;28.97;99446.97;4458089;32;33006;-94
2021/03/16 08:54:25;;;;;;;;;;;;;;;16.70;28.55;99455.91;4445169;32;33775;-92
2021/03/16 08:57:21;;;;;;;;;;;;;;;16.46;29.11;99449.50;4445091;32;33053;-88
2021/03/16 09:00:07;;;;;;;;;;;;;;;16.79;28.39;99451.03;4458992;32;33889;-88
2021/03/16 09:02:55;;;;;;;;;;;;;;;17.02;28.04;99450.47;4460284;32;34968;-92
2021/03/16 09:05:41;;;;;;;;;;;;;;;16.44;28.60;99443.50;4450199;32;34294;-91
2021/03/16 09:08:28;;;;;;;;;;;;;;;17.09;27.65;99444.84;4446856;32;32851;-91
2021/03/16 09:11:25;;;;;;;;;;;;;;;17.65;27.14;99440.34;4447045;32;33623;-93
2021/03/16 09:14:14;;;;;;;;;;;;;;;17.79;27.01;99439.47;4444613;32;33031;-92
2021/03/16 09:17:00;;;;;;;;;;;;;;;18.09;26.46;99443.66;4448805;32;34429;-92
2021/03/16 09:19:46;;;;;;;;;;;;;;;17.74;26.83;99443.34;4452503;32;33880;-91
2021/03/16 09:22:32;;;;;;;;;;;;;;;18.79;24.64;99449.53;4452063;32;34002;-91
2021/03/16 09:25:18;;;;;;;;;;;;;;;17.87;26.17;99452.13;4461493;32;34185;-92
2021/03/16 09:28:04;;;;;;;;;;;;;;;18.01;25.81;99454.72;4446759;32;33135;-91
2021/03/16 09:30:50;;;;;;;;;;;;;;;18.20;25.58;99448.22;4457210;32;34113;-93
2021/03/16 09:33:38;;;;;;;;;;;;;;;18.41;25.18;99448.56;4444540;32;32090;-93
2021/03/16 09:36:29;;;;;;;;;;;;;;;18.51;25.08;99454.91;4446230;32;34015;-92
2021/03/16 09:39:03;;;;;;;;;;;;;;;18.56;24.96;99459.87;4456203;32;33208;-93
2021/03/16 09:41:31;;;;;;;;;;;;;;;18.10;25.53;99465.63;4442317;32;34556;-94
2021/03/16 09:43:59;;;;;;;;;;;;;;;18.02;25.10;99472.22;4443195;32;33867;-93
2021/03/16 09:46:27;;;;;;;;;;;;;;;18.52;24.50;99461.88;4443742;32;33084;-93
2021/03/16 09:48:55;;;;;;;;;;;;;;;18.43;24.73;99462.50;4444358;32;34378;-91
2021/03/16 09:51:24;;;;;;;;;;;;;;;18.48;24.46;99464.81;4457219;32;33651;-92
2021/03/16 09:53:52;;;;;;;;;;;;;;;18.63;24.43;99461.13;4457906;32;33037;-91
2021/03/16 09:56:30;;;;;;;;;;;;;;;18.12;25.01;99467.22;4457577;32;33917;-90
2021/03/16 09:58:59;;;;;;;;;;;;;;;17.82;24.83;99460.34;4446474;32;34055;-92
2021/03/16 10:01:27;;;;;;;;;;;;;;;18.44;24.16;99463.31;4443357;32;32535;-92
2021/03/16 10:04:00;;;;;;;;;;;;;;;18.48;23.91;99462.16;4443375;32;31735;-92
2021/03/16 10:06:32;;;;;;;;;;;;;;;18.40;24.55;99457.44;4443064;32;32876;-92
2021/03/16 10:09:01;;;;;;;;;;;;;;;18.59;24.10;99458.81;4442842;32;33003;-93
2021/03/16 10:11:30;;;;;;;;;;;;;;;18.54;23.66;99461.75;4443005;32;32639;-92
2021/03/16 10:13:58;;;;;;;;;;;;;;;18.50;23.79;99457.66;4456433;32;32882;-92
2021/03/16 10:16:30;;;;;;;;;;;;;;;19.35;22.80;99449.94;4443328;32;34067;-91
2021/03/16 10:18:58;;;;;;;;;;;;;;;18.94;23.24;99458.19;4443679;32;32996;-92
2021/03/16 10:21:33;;;;;;;;;;;;;;;18.57;23.83;99455.44;4444843;32;34422;-92
2021/03/16 10:24:06;;;;;;;;;;;;;;;19.74;22.47;99441.00;4442838;32;32122;-91
2021/03/16 10:26:34;;;;;;;;;;;;;;;19.77;22.15;99446.94;4442178;32;32716;-91
2021/03/16 10:29:08;;;;;;;;;;;;;;;18.95;23.09;99444.87;4429832;32;34178;-91
2021/03/16 10:31:35;;;;;;;;;;;;;;;19.04;23.46;99448.66;4442143;32;33334;-92
2021/03/16 10:34:03;;;;;;;;;;;;;;;18.98;23.48;99439.38;4442695;32;33288;-92
2021/03/16 10:36:35;;;;;;;;;;;;;;;19.44;22.80;99452.84;4430272;32;33408;-92
2021/03/16 10:39:04;;;;;;;;;;;;;;;18.36;23.45;99443.59;4443208;32;33174;-91
2021/03/16 10:41:31;;;;;;;;;;;;;;;19.16;22.40;99441.66;4455077;32;33873;-91
2021/03/16 10:43:58;;;;;;;;;;;;;;;19.07;23.12;99437.87;4430932;32;31984;-87
2021/03/16 10:46:26;;;;;;;;;;;;;;;18.60;23.82;99452.56;4453889;32;32822;-88
2021/03/16 10:48:54;;;;;;;;;;;;;;;18.95;23.63;99430.84;4454393;32;33727;-90
2021/03/16 10:51:22;;;;;;;;;;;;;;;19.23;23.58;99439.44;4441491;32;32726;-92
2021/03/16 10:53:50;;;;;;;;;;;;;;;19.66;22.89;99445.09;4455161;32;32328;-93
2021/03/16 10:56:18;;;;;;;;;;;;;;;20.03;22.44;99431.78;4442605;32;33876;-91
2021/03/16 10:58:45;;;;;;;;;;;;;;;20.33;21.63;99438.34;4442116;32;33481;-91
2021/03/16 11:01:14;;;;;;;;;;;;;;;19.39;22.42;99444.44;4442526;32;33183;-92
2021/03/16 11:03:41;;;;;;;;;;;;;;;20.52;21.41;99443.06;4429908;32;32085;-92
2021/03/16 11:06:09;;;;;;;;;;;;;;;20.27;22.09;99443.28;4442819;32;34198;-92
2021/03/16 11:08:38;;;;;;;;;;;;;;;20.45;20.96;99431.28;4441698;32;33092;-92
2021/03/16 11:11:06;;;;;;;;;;;;;;;21.01;20.82;99433.12;4446203;32;33338;-92
2021/03/16 11:13:33;;;;;;;;;;;;;;;20.87;21.06;99430.72;4442898;32;33213;-93
2021/03/16 11:16:01;;;;;;;;;;;;;;;20.76;21.13;99436.03;4442841;32;33012;-92
2021/03/16 11:18:31;;;;;;;;;;;;;;;19.86;22.30;99440.12;4442633;32;32643;-92
2021/03/16 11:20:59;;;;;;;;;;;;;;;20.33;21.36;99433.06;4429713;32;33319;-93
2021/03/16 11:23:26;;;;;;;;;;;;;;;21.15;20.79;99432.03;4455666;32;33129;-93
2021/03/16 11:25:54;;;;;;;;;;;;;;;21.37;19.99;99443.53;4442181;32;32798;-93
2021/03/16 11:28:21;;;;;;;;;;;;;;;21.60;19.43;99440.84;4443224;32;32967;-94
2021/03/16 11:30:49;;;;;;;;;;;;;;;21.06;20.12;99432.75;4442943;32;32872;-92
2021/03/16 11:33:16;;;;;;;;;;;;;;;22.06;19.15;99442.34;4450835;32;33700;-91
2021/03/16 11:36:04;;;;;;;;;;;;;;;20.71;19.45;99444.31;4459261;32;34018;-92
2021/03/16 11:38:50;;;;;;;;;;;;;;;21.33;19.37;99442.94;4464000;32;32993;-91
2021/03/16 11:41:35;;;;;;;;;;;;;;;20.76;19.86;99436.03;4448533;32;34067;-92
2021/03/16 11:44:22;;;;;;;;;;;;;;;20.06;20.51;99430.69;4434711;32;31952;-93
2021/03/16 11:47:24;;;;;;;;;;;;;;;20.17;19.94;99429.91;4437186;32;33242;-93
2021/03/16 11:50:11;;;;;;;;;;;;;;;20.34;19.35;99423.31;4444719;32;33468;-92
2021/03/16 11:52:57;;;;;;;;;;;;;;;20.57;19.31;99424.19;4446417;32;32943;-90
2021/03/16 11:55:43;;;;;;;;;;;;;;;20.80;19.46;99417.13;4432806;32;32030;-92
2021/03/16 11:58:29;;;;;;;;;;;;;;;21.05;19.30;99423.13;4458119;32;34671;-95
2021/03/16 12:01:16;;;;;;;;;;;;;;;20.95;19.59;99420.34;4448555;32;32892;-92
2021/03/16 12:04:04;;;;;;;;;;;;;;;20.83;19.62;99434.56;4449275;32;32785;-95
2021/03/16 12:06:51;;;;;;;;;;;;;;;20.89;19.71;99425.28;4461311;31;34006;-93
2021/03/16 12:09:37;;;;;;;;;;;;;;;20.31;20.50;99429.69;4447754;32;33037;-94
2021/03/16 12:12:24;;;;;;;;;;;;;;;20.63;20.32;99433.44;4442866;32;33599;-93
2021/03/16 12:15:12;;;;;;;;;;;;;;;20.27;20.32;99420.28;4457601;32;32912;-95
2021/03/16 12:17:57;;;;;;;;;;;;;;;19.93;20.89;99428.16;4452444;32;33095;-94
2021/03/16 12:20:44;;;;;;;;;;;;;;;19.74;20.73;99423.34;4448596;32;34098;-93
2021/03/16 12:23:30;;;;;;;;;;;;;;;20.35;19.99;99433.81;4438516;32;33106;-94
2021/03/16 12:26:16;;;;;;;;;;;;;;;19.89;21.11;99434.63;4449327;32;34412;-93
2021/03/16 12:29:03;;;;;;;;;;;;;;;19.97;21.01;99434.03;4464465;32;32228;-93
2021/03/16 12:31:49;;;;;;;;;;;;;;;20.41;21.02;99427.19;4461932;32;33200;-93
2021/03/16 12:34:36;;;;;;;;;;;;;;;20.75;20.93;99418.44;4451657;32;33133;-92
2021/03/16 12:37:22;;;;;;;;;;;;;;;20.95;20.81;99417.69;4464112;32;34166;-92
2021/03/16 12:40:09;;;;;;;;;;;;;;;20.49;20.61;99418.66;4450121;32;32019;-92
2021/03/16 12:42:56;;;;;;;;;;;;;;;20.14;20.64;99424.84;4460874;32;34205;-93
2021/03/16 12:45:43;;;;;;;;;;;;;;;20.13;20.89;99415.22;4449822;32;33277;-92
2021/03/16 12:48:29;;;;;;;;;;;;;;;20.39;20.69;99415.03;4449672;32;33914;-92
2021/03/16 12:51:16;;;;;;;;;;;;;;;20.94;20.38;99413.41;4460796;32;31754;-93
2021/03/16 12:54:02;;;;;;;;;;;;;;;20.48;20.87;99414.31;4467807;32;33144;-93
2021/03/16 12:56:48;;;;;;;;;;;;;;;20.74;20.71;99419.41;4470257;32;32778;-91
2021/03/16 12:59:35;;;;;;;;;;;;;;;20.90;20.72;99419.91;4469515;32;33322;-91
2021/03/16 13:02:21;;;;;;;;;;;;;;;20.59;20.76;99422.25;4468337;32;32165;-91
2021/03/16 13:05:12;;;;;;;;;;;;;;;20.55;20.30;99428.75;4462289;32;33122;-92
2021/03/16 13:08:05;;;;;;;;;;;;;;;19.78;21.07;99416.03;4450999;32;34635;-92
2021/03/16 13:10:51;;;;;;;;;;;;;;;20.24;20.73;99435.56;4462867;32;34194;-90
2021/03/16 13:13:37;;;;;;;;;;;;;;;20.59;20.30;99432.00;4449672;32;32589;-92
2021/03/16 13:16:25;;;;;;;;;;;;;;;20.57;20.31;99433.91;4462759;32;33054;-92
2021/03/16 13:19:13;;;;;;;;;;;;;;;20.74;20.07;99436.16;4464838;32;35594;-92
2021/03/16 13:22:00;;;;;;;;;;;;;;;20.89;19.69;99433.22;4475725;31;34235;-91
2021/03/16 13:24:46;;;;;;;;;;;;;;;20.60;19.74;99441.62;4486559;32;32770;-90
2021/03/16 13:27:31;;;;;;;;;;;;;;;21.14;19.20;99454.19;4469005;32;33021;-89
2021/03/16 13:30:18;;;;;;;;;;;;;;;21.07;19.17;99439.72;4468784;32;33818;-91
2021/03/16 13:33:04;;;;;;;;;;;;;;;20.77;19.42;99443.84;4485439;32;35317;-91
2021/03/16 13:35:55;;;;;;;;;;;;;;;20.82;19.12;99444.31;4486810;32;33588;-90
2021/03/16 13:38:47;;;;;;;;;;;;;;;21.08;18.65;99446.72;4465059;31;34272;-91
2021/03/16 13:41:33;;;;;;;;;;;;;;;20.74;18.97;99456.47;4471907;32;36026;-92
2021/03/16 13:44:22;;;;;;;;;;;;;;;20.79;19.29;99460.44;4459471;32;35781;-92
2021/03/16 13:47:09;;;;;;;;;;;;;;;21.42;18.90;99459.91;4466272;32;33472;-92
2021/03/16 13:49:59;;;;;;;;;;;;;;;21.47;19.25;99463.03;4463503;32;34655;-92
2021/03/16 13:52:44;;;;;;;;;;;;;;;20.83;19.53;99461.91;4474436;32;35034;-92
2021/03/16 13:55:32;;;;;;;;;;;;;;;21.10;18.79;99465.13;4459554;32;33812;-90
2021/03/16 13:58:18;;;;;;;;;;;;;;;20.92;19.04;99473.56;4461486;32;33100;-91
2021/03/16 14:01:04;;;;;;;;;;;;;;;20.91;19.09;99471.88;4463427;32;33150;-92
2021/03/16 14:03:51;;;;;;;;;;;;;;;20.79;19.47;99480.78;4472591;32;32858;-92